Track Гречишкин Роман

Time Latitude Longitude Accuracy (66% radius in meters) Altitude (meters) Speed (km/hour) Bearing (degrees) Battery (%) GPS flag
06:57:23 57.204952 60.115943 0 0 0 0 1 delete
06:57:22 57.204942 60.115940 0 0 0 0 1 delete
06:57:21 57.204928 60.115928 0 0 0 0 1 delete
06:57:20 57.204918 60.115915 0 0 0 0 1 delete
06:57:19 57.204917 60.115903 0 0 0 0 1 delete
06:57:18 57.204915 60.115890 0 0 0 0 1 delete
06:57:17 57.204910 60.115863 0 0 0 0 1 delete
06:57:16 57.204905 60.115830 0 0 0 0 1 delete
06:57:15 57.204903 60.115795 0 0 0 0 1 delete
06:57:14 57.204913 60.115753 0 0 0 0 1 delete
06:57:13 57.204927 60.115725 0 0 0 0 1 delete
06:57:12 57.204952 60.115698 0 0 0 0 1 delete
06:57:11 57.204973 60.115677 0 0 0 0 1 delete
06:57:10 57.204992 60.115643 0 0 0 0 1 delete
06:57:09 57.205010 60.115617 0 0 0 0 1 delete
06:57:08 57.205018 60.115600 0 0 0 0 1 delete
06:57:07 57.205023 60.115592 0 0 0 0 1 delete
06:57:06 57.205018 60.115582 0 0 0 0 1 delete
06:57:05 57.205003 60.115598 0 0 0 0 1 delete
06:57:04 57.204977 60.115640 0 0 0 0 1 delete
06:57:03 57.204947 60.115685 0 0 0 0 1 delete
06:57:02 57.204920 60.115722 0 0 0 0 1 delete
06:57:01 57.204892 60.115752 0 0 0 0 1 delete
06:57:00 57.204860 60.115778 0 0 0 0 1 delete
06:56:59 57.204830 60.115783 0 0 0 0 1 delete
06:56:58 57.204803 60.115792 0 0 0 0 1 delete
06:56:57 57.204773 60.115785 0 0 0 0 1 delete
06:56:56 57.204743 60.115768 0 0 0 0 1 delete
06:56:55 57.204718 60.115742 0 0 0 0 1 delete
06:56:54 57.204702 60.115707 0 0 0 0 1 delete
06:56:53 57.204688 60.115670 0 0 0 0 1 delete
06:56:52 57.204680 60.115618 0 0 0 0 1 delete
06:56:51 57.204672 60.115563 0 0 0 0 1 delete
06:56:50 57.204667 60.115507 0 0 0 0 1 delete
06:56:49 57.204667 60.115450 0 0 0 0 1 delete
06:56:48 57.204667 60.115403 0 0 0 0 1 delete
06:56:47 57.204672 60.115352 0 0 0 0 1 delete
06:56:46 57.204675 60.115302 0 0 0 0 1 delete
06:56:45 57.204678 60.115250 0 0 0 0 1 delete
06:56:44 57.204685 60.115195 0 0 0 0 1 delete
06:56:43 57.204695 60.115138 0 0 0 0 1 delete
06:56:42 57.204703 60.115080 0 0 0 0 1 delete
06:56:41 57.204710 60.115020 0 0 0 0 1 delete
06:56:40 57.204713 60.114953 0 0 0 0 1 delete
06:56:39 57.204715 60.114892 0 0 0 0 1 delete
06:56:38 57.204717 60.114832 0 0 0 0 1 delete
06:56:37 57.204712 60.114772 0 0 0 0 1 delete
06:56:36 57.204712 60.114713 0 0 0 0 1 delete
06:56:35 57.204708 60.114657 0 0 0 0 1 delete
06:56:34 57.204710 60.114592 0 0 0 0 1 delete